Felicity, California
Current Conditions -  °F | °C
As of 6:57 AM on Friday 19 Dec 2014 (Local Time) from KNYL Reporting Station
Scattered Clouds Scattered Clouds  
Wind Chill: 45°   Ceiling: Unl
Heat Index: 47°   Visibility: 10mi
Dew Point: 40°   Wind: 5mph
Humidity: 77%   Direction: 30°NNE
Pressure: 30.22"   Gusts: NA
Location:  32.9392°N, 114.9°W
Report Text: KNYL 191457Z 03004KT 10SM SCT250 08/04 A3022 RMK AO2 SLP234 T00830044 53014
Loading
Personal Weather Stations






























Interactive Weather Map New forecast layout! Learn more

10-Day Weather Forecast

Advertisements
Track Severe Weather on mobile